Time;durP1;ratioP1;P1;durP2;ratioP2;P2;SDS_P1;SDS_P2;PMS_P1;PMS_P2;Temp;Humidity;BMP_temperature;BMP_pressure;BME280_temperature;BME280_humidity;BME280_pressure;Samples;Min_cycle;Max_cycle;Signal;HPM_P1;HPM_P2
2022/01/21 00:02:04;;;;;;;17.23;7.05;;;;;;;3.38;59.30;94460.78;5094146;28;20218;-78
2022/01/21 00:04:31;;;;;;;13.60;5.97;;;;;;;3.54;61.31;94478.25;5094270;28;20660;-78
2022/01/21 00:06:58;;;;;;;14.82;6.95;;;;;;;3.66;59.26;94485.09;5093143;28;20321;-78
2022/01/21 00:09:25;;;;;;;14.98;6.57;;;;;;;3.65;58.60;94467.41;5093855;28;20229;-78
2022/01/21 00:11:53;;;;;;;10.82;4.65;;;;;;;3.54;58.45;94472.91;5094115;28;20199;-78
2022/01/21 00:14:20;;;;;;;14.07;6.10;;;;;;;3.53;58.26;94479.34;5093884;28;20222;-80
2022/01/21 00:16:47;;;;;;;16.52;6.43;;;;;;;3.63;59.71;94480.28;5094249;28;20210;-78
2022/01/21 00:19:16;;;;;;;17.10;6.43;;;;;;;3.62;59.19;94478.69;5093612;28;20209;-79
2022/01/21 00:32:46;;;;;;;9.60;5.55;;;;;;;3.86;58.75;94487.47;5089703;28;20234;-78
2022/01/21 00:35:14;;;;;;;11.23;5.72;;;;;;;3.90;59.40;94501.91;5093376;28;20219;-79
2022/01/21 00:37:41;;;;;;;12.43;5.40;;;;;;;3.97;60.37;94496.97;5092954;28;20259;-78
2022/01/21 00:40:10;;;;;;;12.13;5.75;;;;;;;3.86;59.93;94492.84;5093400;28;20225;-78
2022/01/21 00:42:54;;;;;;;7.40;3.40;;;;;;;4.04;61.27;94497.41;5093388;28;20624;-80
2022/01/21 00:45:24;;;;;;;12.77;4.72;;;;;;;4.12;61.63;94496.75;5093921;28;20198;-77
2022/01/21 00:47:51;;;;;;;6.75;3.25;;;;;;;4.31;64.55;94502.13;5093132;28;20746;-79
2022/01/21 00:50:18;;;;;;;4.50;2.72;;;;;;;4.28;64.41;94497.34;5093164;28;20218;-77
2022/01/21 00:52:44;;;;;;;11.25;3.50;;;;;;;4.28;66.18;94500.81;5093457;28;20219;-78
2022/01/21 00:55:12;;;;;;;7.43;2.92;;;;;;;4.29;67.95;94498.94;5092845;28;20205;-78
2022/01/21 00:57:40;;;;;;;3.22;1.73;;;;;;;4.10;73.21;94506.97;5092757;28;20237;-78
2022/01/21 01:00:10;;;;;;;4.03;1.73;;;;;;;4.00;74.59;94509.78;5092819;28;20287;-76
2022/01/21 01:02:37;;;;;;;7.35;1.75;;;;;;;3.87;76.35;94516.66;5093069;28;20202;-78
2022/01/21 01:05:06;;;;;;;2.28;1.50;;;;;;;3.71;77.90;94512.59;5092503;28;20202;-78
2022/01/21 01:07:33;;;;;;;1.63;1.00;;;;;;;3.55;78.68;94509.28;5092715;28;20234;-74
2022/01/21 01:10:02;;;;;;;2.42;1.23;;;;;;;3.48;79.46;94532.94;5092540;28;20202;-79
2022/01/21 01:12:44;;;;;;;3.45;1.63;;;;;;;3.34;79.92;94525.88;5093139;28;20218;-79
2022/01/21 01:20:43;;;;;;;2.05;1.48;;;;;;;3.20;80.96;94515.06;5074575;28;20209;-77
2022/01/21 01:23:22;;;;;;;9.05;2.50;;;;;;;3.20;81.72;94525.75;5091899;28;20225;-79
2022/01/21 01:28:32;;;;;;;6.40;2.85;;;;;;;3.24;82.27;94521.44;5068903;28;20316;-78
2022/01/21 01:31:00;;;;;;;4.95;2.88;;;;;;;3.27;82.40;94531.59;5092255;28;20205;-78
2022/01/21 01:33:35;;;;;;;2.28;1.77;;;;;;;3.27;82.01;94526.22;5092265;28;20242;-79
2022/01/21 01:36:02;;;;;;;5.50;2.72;;;;;;;3.22;82.40;94529.75;5092530;28;20221;-79
2022/01/21 01:38:47;;;;;;;10.00;3.03;;;;;;;3.29;82.79;94518.69;5092599;28;20226;-79
2022/01/21 01:41:17;;;;;;;8.13;2.45;;;;;;;3.27;83.58;94514.72;5092176;28;20197;-79
2022/01/21 01:49:31;;;;;;;5.03;2.42;;;;;;;3.14;83.60;94510.84;5090405;28;20194;-79
2022/01/21 01:51:58;;;;;;;5.32;2.70;;;;;;;3.15;84.40;94502.50;5078520;28;20286;-79
2022/01/21 01:54:31;;;;;;;5.50;2.47;;;;;;;3.13;84.69;94512.72;5091705;28;20210;-79
2022/01/21 01:56:59;;;;;;;7.15;2.40;;;;;;;3.22;84.45;94515.56;5092087;28;20282;-78
2022/01/21 01:59:28;;;;;;;8.43;2.63;;;;;;;3.01;84.99;94511.50;5081356;28;20284;-78
2022/01/21 02:01:58;;;;;;;3.85;2.42;;;;;;;3.04;84.98;94521.63;5089098;28;20198;-79
2022/01/21 02:04:25;;;;;;;6.45;2.95;;;;;;;3.08;84.57;94518.13;5092166;28;20206;-79
2022/01/21 02:06:52;;;;;;;6.68;2.80;;;;;;;3.02;84.82;94518.44;5091444;28;20226;-77
2022/01/21 02:09:19;;;;;;;7.82;2.70;;;;;;;3.05;84.81;94523.22;5091275;28;20195;-77
2022/01/21 02:11:47;;;;;;;11.30;4.80;;;;;;;2.96;83.91;94522.25;5092062;28;20585;-77
2022/01/21 02:14:20;;;;;;;8.35;3.83;;;;;;;2.91;83.76;94523.09;5091936;28;20289;-76
2022/01/21 02:17:11;;;;;;;10.15;4.22;;;;;;;2.41;85.16;94524.34;5090981;28;20667;-75
2022/01/21 02:22:44;;;;;;;10.15;4.20;;;;;;;2.60;85.01;94533.25;5048710;28;20253;-74
2022/01/21 02:25:16;;;;;;;11.40;4.43;;;;;;;2.35;85.41;94536.13;5048185;28;20713;-75
2022/01/21 02:27:45;;;;;;;7.93;3.78;;;;;;;2.42;85.84;94531.28;5069853;28;20233;-76
2022/01/21 02:30:18;;;;;;;8.23;3.72;;;;;;;2.44;85.97;94529.94;5090820;28;20519;-76
2022/01/21 02:32:46;;;;;;;8.80;4.45;;;;;;;2.41;85.89;94529.69;5077650;28;20238;-75
2022/01/21 02:35:14;;;;;;;11.20;4.50;;;;;;;2.52;85.73;94533.88;5091036;28;20218;-76
2022/01/21 02:37:44;;;;;;;5.65;3.47;;;;;;;2.40;85.82;94536.91;5091241;28;20227;-75
2022/01/21 02:40:12;;;;;;;10.50;4.65;;;;;;;2.23;86.76;94549.03;5091095;28;20205;-76
2022/01/21 02:42:39;;;;;;;5.60;3.75;;;;;;;1.96;88.27;94558.28;5091034;28;20653;-75
2022/01/21 02:45:08;;;;;;;6.70;3.83;;;;;;;2.01;88.81;94562.81;5091527;28;20201;-75
2022/01/21 02:47:35;;;;;;;7.90;3.83;;;;;;;2.05;88.89;94563.84;5091069;28;20241;-75
2022/01/21 02:50:02;;;;;;;7.32;3.45;;;;;;;1.89;88.89;94570.34;5091054;28;20222;-75
2022/01/21 02:52:31;;;;;;;6.82;3.35;;;;;;;1.83;88.96;94572.22;5091627;28;20561;-75
2022/01/21 02:54:59;;;;;;;7.68;3.95;;;;;;;1.69;89.98;94571.22;5090794;28;20225;-76
2022/01/21 02:57:26;;;;;;;5.70;3.38;;;;;;;1.72;90.41;94578.69;5090964;28;20230;-76
2022/01/21 02:59:53;;;;;;;6.43;3.10;;;;;;;1.82;89.75;94581.31;5077225;28;20318;-76
2022/01/21 03:02:20;;;;;;;5.93;3.80;;;;;;;1.57;90.14;94584.09;5077951;28;20205;-76
2022/01/21 03:04:55;;;;;;;2.45;1.92;;;;;;;1.17;90.79;94588.47;5091362;28;20210;-76
2022/01/21 03:07:22;;;;;;;3.33;2.08;;;;;;;0.82;91.93;94589.28;5091514;28;20308;-76
2022/01/21 03:09:49;;;;;;;2.85;1.83;;;;;;;0.81;92.83;94602.91;5091445;28;20194;-77
2022/01/21 03:12:17;;;;;;;1.70;1.10;;;;;;;0.83;92.88;94595.41;5090889;28;20225;-77
2022/01/21 03:14:44;;;;;;;0.68;0.60;;;;;;;0.65;93.13;94600.22;5091135;28;20263;-76
2022/01/21 03:17:11;;;;;;;4.60;1.95;;;;;;;0.55;93.98;94588.75;5091311;28;20652;-78
2022/01/21 03:19:38;;;;;;;4.28;2.22;;;;;;;0.60;94.68;94600.22;5091326;28;20206;-79
2022/01/21 03:22:05;;;;;;;1.77;0.88;;;;;;;0.55;94.06;94594.88;5081071;28;20219;-80
2022/01/21 03:24:32;;;;;;;0.98;0.82;;;;;;;0.57;94.68;94598.06;5073456;28;20206;-78
2022/01/21 03:26:59;;;;;;;0.73;0.68;;;;;;;0.54;94.65;94590.63;5090456;28;20217;-78
2022/01/21 03:29:28;;;;;;;1.02;0.80;;;;;;;0.50;94.75;94596.75;5095586;28;20210;-77
2022/01/21 03:31:54;;;;;;;3.60;1.20;;;;;;;0.52;95.06;94598.09;5094723;28;20209;-79
2022/01/21 03:34:22;;;;;;;1.20;0.77;;;;;;;0.48;95.09;94594.34;5094516;28;20242;-78
2022/01/21 03:36:49;;;;;;;1.60;1.20;;;;;;;0.47;95.38;94606.06;5094548;28;20205;-78
2022/01/21 03:39:17;;;;;;;2.38;1.15;;;;;;;0.46;95.19;94609.81;5094819;28;20206;-77
2022/01/21 03:41:46;;;;;;;0.95;0.65;;;;;;;0.38;95.44;94615.66;5094821;28;20211;-78
2022/01/21 03:44:13;;;;;;;0.43;0.43;;;;;;;0.31;95.83;94593.78;5094745;28;20202;-78
2022/01/21 03:46:42;;;;;;;1.30;1.05;;;;;;;0.33;95.78;94619.09;5094634;28;20206;-78
2022/01/21 03:49:09;;;;;;;1.20;0.77;;;;;;;0.40;95.83;94624.19;5094732;28;20226;-79
2022/01/21 03:51:36;;;;;;;2.13;0.90;;;;;;;0.51;95.76;94614.34;5094589;28;20221;-79
2022/01/21 03:54:03;;;;;;;0.60;0.50;;;;;;;0.42;95.40;94611.38;5094776;28;20206;-79
2022/01/21 03:56:30;;;;;;;0.52;0.40;;;;;;;0.46;95.35;94617.78;5095470;28;20222;-79
2022/01/21 03:58:56;;;;;;;0.70;0.70;;;;;;;0.53;95.27;94622.88;5088678;28;20219;-80
2022/01/21 04:01:24;;;;;;;1.70;1.30;;;;;;;0.59;95.21;94617.28;5087129;28;20543;-81
2022/01/21 04:03:53;;;;;;;1.50;0.77;;;;;;;0.69;94.35;94622.59;5094729;28;20217;-81
2022/01/21 04:06:26;;;;;;;3.72;1.45;;;;;;;0.75;94.49;94630.63;5080030;28;20226;-81
2022/01/21 04:08:53;;;;;;;1.38;0.90;;;;;;;0.71;94.12;94625.81;5081343;28;20223;-81
2022/01/21 04:11:20;;;;;;;1.58;0.63;;;;;;;0.84;93.81;94634.34;5094502;28;20218;-80
2022/01/21 04:13:47;;;;;;;2.53;1.00;;;;;;;0.88;93.83;94636.22;5094891;28;20207;-83
2022/01/21 04:16:14;;;;;;;2.88;1.13;;;;;;;1.03;93.43;94643.41;5094122;28;20714;-83
2022/01/21 04:18:40;;;;;;;1.90;1.45;;;;;;;0.98;92.75;94649.53;5093969;28;20203;-85
2022/01/21 04:21:09;;;;;;;1.13;0.65;;;;;;;0.81;92.70;94650.88;5094075;28;20241;-85
2022/01/21 04:23:36;;;;;;;2.28;1.25;;;;;;;0.89;92.38;94653.00;5094264;28;20258;-84
2022/01/21 04:26:03;;;;;;;2.05;1.10;;;;;;;0.86;91.73;94658.88;5093997;28;20206;-80
2022/01/21 04:28:30;;;;;;;3.05;1.40;;;;;;;0.86;92.29;94658.88;5092852;28;20298;-82
2022/01/21 04:30:57;;;;;;;2.33;1.27;;;;;;;0.92;91.78;94657.81;5093695;28;20608;-80
2022/01/21 04:33:23;;;;;;;3.05;1.60;;;;;;;1.03;91.96;94680.75;5093558;28;20700;-81
2022/01/21 04:35:51;;;;;;;1.13;0.73;;;;;;;0.93;91.84;94676.22;5093985;28;20209;-77
2022/01/21 04:38:22;;;;;;;2.45;1.30;;;;;;;0.52;93.07;94680.69;5093632;28;20222;-76
2022/01/21 04:40:55;;;;;;;1.35;0.80;;;;;;;0.45;92.77;94682.81;5076000;28;20202;-79
2022/01/21 04:48:51;;;;;;;1.40;1.30;;;;;;;0.87;91.93;94687.13;5093296;28;20274;-78
2022/01/21 04:51:21;;;;;;;1.90;1.00;;;;;;;0.87;91.68;94681.81;5093318;28;20680;-79
2022/01/21 04:53:50;;;;;;;1.33;0.80;;;;;;;0.91;90.63;94690.88;5093491;28;20206;-81
2022/01/21 04:56:17;;;;;;;1.95;0.93;;;;;;;0.77;90.48;94697.78;5093300;28;20222;-81
2022/01/21 04:58:45;;;;;;;1.27;1.13;;;;;;;0.69;91.32;94710.56;5093525;28;20241;-80
2022/01/21 05:01:13;;;;;;;1.13;0.90;;;;;;;0.75;91.90;94715.91;5092833;28;20326;-79
2022/01/21 05:03:44;;;;;;;2.38;1.27;;;;;;;0.87;91.76;94719.13;5092846;28;20198;-81
2022/01/21 05:06:11;;;;;;;1.38;1.10;;;;;;;0.99;91.42;94714.34;5092615;28;20242;-81
2022/01/21 05:08:44;;;;;;;1.55;1.20;;;;;;;0.82;90.86;94713.81;5092873;28;20620;-81
2022/01/21 05:11:13;;;;;;;1.10;0.82;;;;;;;0.71;90.43;94711.09;5092874;28;20225;-81
2022/01/21 05:13:43;;;;;;;0.75;0.60;;;;;;;0.56;89.93;94713.72;5093145;28;20225;-80
2022/01/21 05:16:28;;;;;;;0.60;0.60;;;;;;;0.53;89.96;94721.47;5092536;28;20256;-80
2022/01/21 05:18:55;;;;;;;1.30;0.90;;;;;;;0.61;90.13;94727.09;5092825;28;20191;-80
2022/01/21 05:21:22;;;;;;;0.68;0.63;;;;;;;0.36;89.33;94735.00;5092762;28;20219;-79
2022/01/21 05:23:49;;;;;;;1.08;0.85;;;;;;;0.21;90.16;94732.28;5091920;28;20202;-80
2022/01/21 05:26:17;;;;;;;2.72;0.95;;;;;;;0.33;90.56;94735.53;5091250;28;20221;-79
2022/01/21 05:28:44;;;;;;;10.40;5.57;;;;;;;0.44;90.27;94726.50;5092903;28;20233;-79
2022/01/21 05:31:11;;;;;;;7.88;3.05;;;;;;;0.51;90.58;94736.91;5091756;28;20624;-79
2022/01/21 05:33:38;;;;;;;3.95;1.42;;;;;;;0.31;89.42;94742.97;5091954;28;20230;-79
2022/01/21 05:36:05;;;;;;;3.80;2.45;;;;;;;0.40;89.93;94761.94;5092177;28;20218;-78
2022/01/21 05:38:32;;;;;;;0.85;0.75;;;;;;;0.32;89.68;94757.88;5092375;28;20587;-79
2022/01/21 05:40:59;;;;;;;4.60;2.72;;;;;;;0.52;89.86;94762.50;5092253;28;20194;-79
2022/01/21 05:43:28;;;;;;;2.95;1.30;;;;;;;0.54;89.69;94763.84;5092534;28;20202;-79
2022/01/21 05:48:39;;;;;;;4.13;1.85;;;;;;;0.58;89.51;94780.91;5092255;28;20236;-78
2022/01/21 05:51:06;;;;;;;4.00;1.17;;;;;;;0.46;88.65;94785.66;5091671;28;20202;-78
2022/01/21 05:53:33;;;;;;;1.67;0.95;;;;;;;0.14;88.34;94790.28;5092281;28;20230;-78
2022/01/21 05:56:02;;;;;;;0.40;0.40;;;;;;;0.08;89.56;94786.00;5092623;28;20230;-78
2022/01/21 05:58:30;;;;;;;0.90;0.80;;;;;;;-0.12;89.43;94798.13;5090060;28;20321;-78
2022/01/21 06:00:57;;;;;;;1.90;1.30;;;;;;;-0.12;90.38;94800.00;5080129;28;20202;-78
2022/01/21 06:03:24;;;;;;;1.50;1.40;;;;;;;0.04;90.79;94811.53;5091251;28;20230;-79
2022/01/21 06:05:51;;;;;;;3.58;1.80;;;;;;;0.22;90.45;94814.59;5091514;28;20222;-78
2022/01/21 06:08:18;;;;;;;1.70;1.13;;;;;;;0.13;90.16;94818.00;5091944;28;20229;-80
2022/01/21 06:10:45;;;;;;;1.30;1.08;;;;;;;0.01;90.15;94823.50;5091231;28;20223;-79
2022/01/21 06:13:15;;;;;;;1.70;1.17;;;;;;;0.04;89.55;94822.19;5090803;28;20198;-78
2022/01/21 06:15:43;;;;;;;5.25;1.80;;;;;;;-0.14;89.44;94821.56;5090752;28;20194;-78
2022/01/21 06:18:10;;;;;;;0.93;0.70;;;;;;;-0.22;89.56;94824.69;5091057;28;20199;-78
2022/01/21 06:20:37;;;;;;;1.63;1.02;;;;;;;-0.52;89.64;94843.06;5091140;28;20233;-77
2022/01/21 06:23:05;;;;;;;2.22;1.95;;;;;;;-0.53;91.17;94839.59;5091326;28;20205;-79
2022/01/21 06:25:31;;;;;;;3.50;2.00;;;;;;;-0.45;91.27;94852.47;5090580;28;20238;-77
2022/01/21 06:27:58;;;;;;;3.75;1.55;;;;;;;-0.52;90.82;94853.69;5090837;28;20218;-80
2022/01/21 06:30:25;;;;;;;1.98;1.23;;;;;;;-0.48;91.05;94862.78;5092031;28;20201;-80
2022/01/21 06:32:53;;;;;;;4.80;2.30;;;;;;;-0.56;90.74;94866.72;5090060;28;20250;-78
2022/01/21 06:35:20;;;;;;;2.30;1.38;;;;;;;-0.64;90.76;94861.03;5090967;28;20248;-78
2022/01/21 06:37:47;;;;;;;4.25;2.17;;;;;;;-0.61;91.43;94873.84;5091684;28;20202;-78
2022/01/21 06:40:15;;;;;;;2.42;1.48;;;;;;;-0.48;91.52;94876.09;5091292;28;20206;-78
2022/01/21 06:42:42;;;;;;;1.40;1.10;;;;;;;-0.48;91.05;94868.13;5091152;28;20668;-78
2022/01/21 06:45:10;;;;;;;2.40;0.93;;;;;;;-0.51;90.55;94873.94;5091604;28;20207;-79
2022/01/21 06:47:37;;;;;;;1.02;0.77;;;;;;;-0.80;90.46;94892.81;5091454;28;20218;-79
2022/01/21 06:50:07;;;;;;;1.73;1.23;;;;;;;-0.75;91.31;94884.88;5091025;28;20230;-79
2022/01/21 06:52:34;;;;;;;2.08;1.45;;;;;;;-0.86;91.20;94896.47;5091086;28;20217;-78
2022/01/21 06:55:02;;;;;;;2.22;1.27;;;;;;;-0.84;91.20;94894.38;5091358;28;20229;-78
2022/01/21 06:57:29;;;;;;;3.05;1.63;;;;;;;-0.77;90.75;94907.47;5091361;28;20238;-81
2022/01/21 06:59:56;;;;;;;2.22;1.33;;;;;;;-0.76;90.93;94907.22;5077925;28;20203;-79
2022/01/21 07:02:23;;;;;;;3.65;1.77;;;;;;;-0.63;91.49;94902.56;5091829;28;20198;-78
2022/01/21 07:04:51;;;;;;;4.05;2.30;;;;;;;-0.29;91.89;94914.59;5094185;28;20225;-78
2022/01/21 07:07:19;;;;;;;4.05;2.10;;;;;;;-0.27;89.95;94917.00;5095081;28;20202;-79
2022/01/21 07:09:46;;;;;;;2.78;1.58;;;;;;;-0.04;90.49;94920.13;5095143;28;20233;-79
2022/01/21 07:12:13;;;;;;;6.25;1.98;;;;;;;0.13;89.74;94914.69;5095230;28;20194;-79
2022/01/21 07:14:40;;;;;;;5.82;1.58;;;;;;;-0.03;87.73;94919.09;5094940;28;20692;-79
2022/01/21 07:17:07;;;;;;;5.03;3.00;;;;;;;0.02;88.25;94920.16;5095319;28;20263;-79
2022/01/21 07:19:34;;;;;;;2.25;1.77;;;;;;;0.24;88.51;94926.22;5094904;28;20202;-79
2022/01/21 07:22:01;;;;;;;3.60;1.92;;;;;;;0.33;87.41;94937.97;5094959;28;20202;-79
2022/01/21 07:24:29;;;;;;;3.78;2.00;;;;;;;0.14;86.53;94944.75;5095040;28;20675;-78
2022/01/21 07:26:57;;;;;;;4.05;2.05;;;;;;;0.02;87.20;94952.09;5095121;28;20206;-80
2022/01/21 07:29:24;;;;;;;4.93;2.63;;;;;;;0.25;86.89;94951.78;5095139;28;20221;-79
2022/01/21 07:31:54;;;;;;;5.00;1.60;;;;;;;0.24;85.41;94944.84;5094851;28;20225;-80
2022/01/21 07:34:24;;;;;;;2.67;1.45;;;;;;;0.12;85.24;94947.69;5094058;28;20240;-80
2022/01/21 07:36:52;;;;;;;6.85;1.40;;;;;;;0.08;85.04;94962.56;5094103;28;20226;-80
2022/01/21 07:39:20;;;;;;;2.65;1.70;;;;;;;0.02;84.91;94963.56;5094255;28;20593;-81
2022/01/21 07:41:48;;;;;;;1.67;1.00;;;;;;;-0.10;85.21;94966.41;5094672;28;20237;-80
2022/01/21 07:44:15;;;;;;;3.42;1.95;;;;;;;0.05;85.66;94972.91;5094772;28;20519;-79
2022/01/21 07:46:44;;;;;;;2.17;1.67;;;;;;;0.04;85.81;94965.97;5094625;28;20213;-79
2022/01/21 07:49:15;;;;;;;2.92;1.60;;;;;;;-0.18;86.27;94969.53;5094305;28;20226;-79
2022/01/21 07:51:43;;;;;;;3.17;1.35;;;;;;;-0.42;86.52;94968.22;5094707;28;20220;-81
2022/01/21 07:54:11;;;;;;;2.42;1.20;;;;;;;-0.39;87.17;94967.72;5094210;28;20232;-78
2022/01/21 07:56:38;;;;;;;2.63;1.33;;;;;;;-0.15;87.23;94974.34;5080429;28;20231;-79
2022/01/21 07:59:09;;;;;;;1.95;1.27;;;;;;;0.11;86.20;94977.25;5087298;28;20199;-79
2022/01/21 08:01:36;;;;;;;3.80;2.30;;;;;;;0.12;85.34;94978.84;5088689;28;20510;-79
2022/01/21 08:04:03;;;;;;;12.25;4.82;;;;;;;0.20;86.02;94983.69;5093759;28;20222;-80
2022/01/21 08:06:33;;;;;;;12.95;3.70;;;;;;;0.33;84.67;94985.94;5093123;28;20607;-78
2022/01/21 08:09:00;;;;;;;2.47;1.35;;;;;;;0.22;84.40;94994.91;5093370;28;20705;-82
2022/01/21 08:11:30;;;;;;;6.38;2.75;;;;;;;0.37;84.50;94980.91;5093653;28;20201;-80
2022/01/21 08:13:58;;;;;;;3.10;2.15;;;;;;;0.56;84.34;94990.09;5092888;28;20202;-80
2022/01/21 08:16:26;;;;;;;6.25;3.35;;;;;;;0.55;84.34;94999.16;5094334;28;20225;-79
2022/01/21 08:18:54;;;;;;;6.50;3.55;;;;;;;0.67;83.76;94992.59;5093948;28;20202;-82
2022/01/21 08:21:21;;;;;;;4.65;2.97;;;;;;;0.51;83.15;94993.53;5093823;28;20234;-81
2022/01/21 08:23:50;;;;;;;6.15;2.20;;;;;;;0.56;83.25;95001.56;5094128;28;20206;-81
2022/01/21 08:26:22;;;;;;;6.50;2.05;;;;;;;0.74;83.11;95008.34;5093841;28;20210;-83
2022/01/21 08:28:53;;;;;;;4.43;1.65;;;;;;;0.50;82.58;94991.13;5083028;28;20245;-80
2022/01/21 08:31:21;;;;;;;3.88;2.45;;;;;;;0.53;82.96;95001.28;5091530;28;20226;-82
2022/01/21 08:33:50;;;;;;;6.75;2.42;;;;;;;0.62;82.19;95011.22;5093220;28;20230;-83
2022/01/21 08:36:19;;;;;;;1.95;1.20;;;;;;;0.38;81.31;94978.00;5093308;28;20214;-81
2022/01/21 08:38:46;;;;;;;3.25;1.60;;;;;;;0.45;81.51;94988.41;5093371;28;20210;-82
2022/01/21 08:41:13;;;;;;;1.70;1.60;;;;;;;0.55;81.08;95021.28;5093703;28;20194;-81
2022/01/21 08:43:40;;;;;;;1.42;1.08;;;;;;;0.03;81.40;94965.19;5094976;28;20206;-81
2022/01/21 08:46:08;;;;;;;2.67;1.45;;;;;;;0.34;81.11;94960.91;5095776;28;20202;-81
2022/01/21 08:48:36;;;;;;;0.80;0.80;;;;;;;0.51;78.04;94956.25;5094592;28;20222;-80
2022/01/21 08:51:09;;;;;;;4.55;2.25;;;;;;;0.62;75.85;94936.59;5093785;28;20230;-81
2022/01/21 08:53:41;;;;;;;4.22;1.65;;;;;;;0.70;75.32;94992.06;5094428;28;20226;-80
2022/01/21 08:56:12;;;;;;;8.60;2.88;;;;;;;0.99;74.52;94981.84;5093119;28;20218;-82
2022/01/21 08:58:41;;;;;;;1.23;0.85;;;;;;;1.13;72.90;95011.53;5089473;28;20206;-83
2022/01/21 09:01:09;;;;;;;2.40;0.90;;;;;;;1.09;73.07;95010.44;5083900;28;20229;-81
2022/01/21 09:03:37;;;;;;;1.70;0.82;;;;;;;1.26;73.07;95013.72;5093978;28;20222;-83
2022/01/21 09:06:05;;;;;;;1.83;1.13;;;;;;;1.15;72.46;95021.94;5093601;28;20285;-85
2022/01/21 09:08:32;;;;;;;0.55;0.55;;;;;;;1.55;71.87;95007.97;5091779;28;20227;-82
2022/01/21 09:11:03;;;;;;;5.20;2.88;;;;;;;2.14;70.63;94995.03;5080701;28;20227;-80
2022/01/21 09:13:38;;;;;;;3.10;1.00;;;;;;;2.29;69.55;94978.22;5092073;28;20210;-81
2022/01/21 09:16:06;;;;;;;1.85;0.90;;;;;;;2.38;68.59;94988.09;5092865;28;20197;-81
2022/01/21 09:18:45;;;;;;;3.70;1.20;;;;;;;2.43;67.18;94963.25;5092676;28;20592;-79
2022/01/21 09:21:13;;;;;;;1.10;0.93;;;;;;;2.89;66.14;94979.22;5092482;28;20183;-81
2022/01/21 09:23:40;;;;;;;1.60;1.25;;;;;;;2.88;66.26;94972.25;5092266;28;20198;-81
2022/01/21 09:26:23;;;;;;;;;;;;;;;;;;;;;
2022/01/21 09:28:51;;;;;;;1.63;0.93;;;;;;;3.42;65.04;94951.75;5090465;28;20220;-81
2022/01/21 09:31:19;;;;;;;1.63;0.93;;;;;;;3.85;63.22;94941.34;5092309;28;20229;-80
2022/01/21 09:33:48;;;;;;;0.85;0.80;;;;;;;3.66;62.97;94910.94;5091207;28;20230;-80
2022/01/21 09:36:19;;;;;;;2.13;1.08;;;;;;;4.12;64.58;94928.31;5081265;28;20205;-82
2022/01/21 09:38:46;;;;;;;1.30;1.00;;;;;;;3.93;62.33;94914.00;5087655;28;20222;-82
2022/01/21 09:41:13;;;;;;;1.40;0.95;;;;;;;3.19;63.06;94914.91;5091871;28;20563;-84
2022/01/21 09:43:45;;;;;;;8.35;2.60;;;;;;;3.18;64.73;94924.03;5092230;28;20581;-82
2022/01/21 09:46:13;;;;;;;9.30;2.90;;;;;;;3.37;64.50;94926.91;5080161;28;20222;-82
2022/01/21 09:48:51;;;;;;;7.82;2.83;;;;;;;3.36;66.34;94926.09;5091563;28;20301;-82
2022/01/21 09:51:21;;;;;;;3.80;2.20;;;;;;;3.06;66.06;94943.06;5092139;28;20229;-81
2022/01/21 09:53:49;;;;;;;3.85;2.53;;;;;;;2.87;68.74;94938.59;5078576;28;20226;-82
2022/01/21 09:56:16;;;;;;;3.65;2.08;;;;;;;2.00;71.47;94917.28;5092220;28;20712;-80
2022/01/21 09:58:47;;;;;;;9.90;3.85;;;;;;;1.81;73.49;94937.53;5077922;28;20237;-82
2022/01/21 10:01:16;;;;;;;4.13;2.78;;;;;;;1.65;72.11;94944.72;5091835;28;20244;-82
2022/01/21 10:03:44;;;;;;;3.63;1.80;;;;;;;1.78;70.05;94922.84;5091769;28;20218;-82
2022/01/21 10:06:13;;;;;;;3.78;2.30;;;;;;;2.54;69.67;94930.09;5092307;28;20202;-80
2022/01/21 10:08:44;;;;;;;5.63;2.60;;;;;;;2.57;68.80;94924.19;5091600;28;20222;-82
2022/01/21 10:11:12;;;;;;;5.60;2.72;;;;;;;2.96;68.29;94926.25;5090987;28;20222;-81
2022/01/21 10:13:39;;;;;;;2.90;1.52;;;;;;;2.66;66.81;94919.91;5090566;28;20206;-82
2022/01/21 10:16:08;;;;;;;2.13;1.15;;;;;;;2.22;68.63;94926.88;5090607;28;20665;-82
2022/01/21 10:18:36;;;;;;;3.63;1.73;;;;;;;2.69;67.50;94906.00;5090703;28;20218;-80
2022/01/21 10:21:10;;;;;;;0.75;0.63;;;;;;;2.41;65.76;94917.25;5091723;28;20205;-80
2022/01/21 10:23:40;;;;;;;2.00;1.05;;;;;;;2.04;66.09;94921.03;5091721;28;20205;-79
2022/01/21 10:26:10;;;;;;;2.20;1.33;;;;;;;2.33;67.41;94917.78;5091887;28;20676;-80
2022/01/21 10:28:39;;;;;;;4.63;1.88;;;;;;;2.63;66.21;94880.31;5091966;28;20313;-81
2022/01/21 10:31:09;;;;;;;5.88;2.10;;;;;;;2.72;67.26;94900.09;5090970;28;20248;-80
2022/01/21 10:33:44;;;;;;;3.72;1.85;;;;;;;3.08;66.48;94897.31;5090817;28;20230;-80
2022/01/21 10:36:16;;;;;;;4.53;2.22;;;;;;;2.59;65.36;94883.81;5091772;28;20591;-82
2022/01/21 10:38:45;;;;;;;2.85;1.83;;;;;;;2.23;66.95;94901.78;5090534;28;20194;-79
2022/01/21 10:41:18;;;;;;;5.35;1.83;;;;;;;2.00;67.43;94906.59;5076666;28;20209;-80
2022/01/21 10:44:03;;;;;;;2.30;1.17;;;;;;;1.76;64.62;94849.44;5090532;28;20198;-80
2022/01/21 10:46:30;;;;;;;2.42;1.67;;;;;;;2.20;64.62;94880.91;5090610;28;20226;-80
2022/01/21 10:49:02;;;;;;;2.05;1.30;;;;;;;2.60;64.75;94874.72;5090995;28;20201;-81
2022/01/21 10:51:31;;;;;;;1.33;0.90;;;;;;;2.21;61.47;94855.81;5091049;28;20599;-81
2022/01/21 10:54:11;;;;;;;4.22;1.58;;;;;;;3.04;64.21;94885.53;5091342;28;20635;-79
2022/01/21 10:56:40;;;;;;;3.90;1.23;;;;;;;2.65;62.63;94880.84;5090529;28;20200;-82
2022/01/21 10:59:07;;;;;;;6.78;1.65;;;;;;;3.11;61.97;94880.72;5077959;28;20205;-80
2022/01/21 11:01:34;;;;;;;3.15;1.58;;;;;;;3.25;62.32;94865.66;5090788;28;20222;-80
2022/01/21 11:04:08;;;;;;;11.85;2.25;;;;;;;3.39;61.87;94866.66;5091338;28;20206;-78
2022/01/21 11:06:43;;;;;;;2.50;1.50;;;;;;;3.59;60.73;94855.00;5091179;28;20218;-79
2022/01/21 11:09:15;;;;;;;4.53;2.03;;;;;;;3.86;61.50;94851.84;5090909;28;20848;-80
2022/01/21 11:11:44;;;;;;;2.55;1.33;;;;;;;3.06;61.95;94862.78;5090554;28;20226;-79
2022/01/21 11:14:12;;;;;;;2.38;1.50;;;;;;;3.23;62.36;94870.47;5089798;28;20562;-78
2022/01/21 11:16:43;;;;;;;3.03;1.33;;;;;;;3.02;61.29;94856.38;5090938;28;20206;-78
2022/01/21 11:19:12;;;;;;;1.35;0.93;;;;;;;3.02;61.64;94850.22;5091230;28;20199;-78
2022/01/21 11:21:44;;;;;;;4.30;1.90;;;;;;;3.56;63.32;94856.34;5084394;28;20662;-78
2022/01/21 11:24:13;;;;;;;5.40;1.38;;;;;;;2.84;61.75;94855.13;5083947;28;20277;-78
2022/01/21 11:26:40;;;;;;;2.58;1.10;;;;;;;2.38;63.50;94861.66;5078158;28;20206;-77
2022/01/21 11:29:10;;;;;;;2.85;1.42;;;;;;;2.66;63.60;94863.75;5090873;28;20218;-78
2022/01/21 11:31:38;;;;;;;1.90;1.50;;;;;;;2.63;64.08;94848.22;5090894;28;20222;-78
2022/01/21 11:34:05;;;;;;;4.57;1.15;;;;;;;2.28;64.36;94856.34;5090413;28;20242;-78
2022/01/21 11:36:33;;;;;;;3.22;1.38;;;;;;;1.79;65.39;94854.22;5090473;28;20680;-77
2022/01/21 11:39:00;;;;;;;1.73;1.40;;;;;;;1.87;65.01;94867.06;5090320;28;20203;-79
2022/01/21 11:41:29;;;;;;;4.25;1.48;;;;;;;1.61;65.64;94870.78;5091004;28;20208;-78
2022/01/21 11:44:04;;;;;;;2.50;1.33;;;;;;;1.73;65.32;94860.66;5089497;28;20620;-79
2022/01/21 11:46:39;;;;;;;2.05;1.45;;;;;;;1.58;66.73;94852.63;5091110;28;20222;-77
2022/01/21 11:49:10;;;;;;;1.45;1.05;;;;;;;1.48;66.17;94857.97;5092905;28;20567;-78
2022/01/21 11:51:39;;;;;;;1.60;1.20;;;;;;;1.46;67.88;94886.78;5094141;28;20238;-79
2022/01/21 11:54:07;;;;;;;4.88;1.90;;;;;;;1.66;65.90;94876.91;5094049;28;20245;-79
2022/01/21 11:56:39;;;;;;;2.55;1.25;;;;;;;1.49;64.06;94868.38;5094192;28;20198;-78
2022/01/21 11:59:11;;;;;;;5.93;1.55;;;;;;;1.55;63.07;94859.28;5093592;28;20657;-79
2022/01/21 12:01:46;;;;;;;12.10;2.40;;;;;;;1.47;64.46;94861.69;5094271;28;20328;-78
2022/01/21 12:04:14;;;;;;;3.30;1.40;;;;;;;1.02;64.94;94855.16;5094241;28;20191;-77
2022/01/21 12:06:41;;;;;;;2.35;1.20;;;;;;;0.90;65.18;94862.59;5094142;28;20229;-77
2022/01/21 12:09:10;;;;;;;4.18;1.20;;;;;;;0.88;65.91;94876.19;5093981;28;20225;-77
2022/01/21 12:11:38;;;;;;;3.75;1.15;;;;;;;0.57;66.57;94867.25;5094385;28;20592;-77
2022/01/21 12:14:44;;;;;;;2.83;2.15;;;;;;;0.71;67.55;94865.72;5093826;28;20673;-79
2022/01/21 12:17:44;;;;;;;2.97;1.20;;;;;;;0.50;67.75;94858.69;5093671;28;20226;-77
2022/01/21 12:20:11;;;;;;;3.72;2.03;;;;;;;0.44;69.30;94867.72;5080763;28;20201;-77
2022/01/21 12:22:38;;;;;;;3.85;1.67;;;;;;;0.63;69.33;94863.56;5093672;28;20656;-77
2022/01/21 12:25:08;;;;;;;8.10;2.00;;;;;;;0.79;67.71;94842.31;5094160;28;20205;-76
2022/01/21 12:27:36;;;;;;;2.55;1.60;;;;;;;0.68;66.91;94860.91;5093441;28;20226;-77